Nearby METAR Reports

 

KIKK - Kankakee, Illinois, USA
Distance from station: S 7mi, 12km
Updated: Sat, 20-Oct-2018 7:55am CDT
Clear
Clear
 Wind from W
Wind: W 12 mph , 19 km/h
Temperature: 43°F , 6°C
Wind Chill: 37°F , 3°C
Dew Point: 37°F , 3°C
Humidity: 81%
Barometer: 29.92 inHg , 1013.2 hPa
Clouds: Clear
Visibility: 10 miles , 16 km
2018/10/20 12:55 KIKK 201255Z AUTO 27010KT 10SM CLR 06/03 A2992 RMK AO2 T00620029
KIGQ - Chicago/Lansing, Illinois, USA
Distance from station: NNE 29mi, 47km
Updated: Sat, 20-Oct-2018 7:55am CDT
Clear
Clear
 Wind from W
Wind: W 10 mph , 17 km/h
Temperature: 43°F , 6°C
Wind Chill: 37°F , 3°C
Dew Point: 37°F , 3°C
Humidity: 81%
Barometer: 29.88 inHg , 1011.9 hPa
Clouds: Clear
Visibility: 10 miles , 16 km
2018/10/20 12:55 KIGQ 201255Z AUTO 27009KT 10SM CLR 06/03 A2988 RMK AO2 T00610026
 
KJOT - Joliet, Illinois, USA
Distance from station: NW 30mi, 48km
Updated: Sat, 20-Oct-2018 7:55am CDT
Clear
Clear
 Wind from WSW
Wind: WSW 7 mph , 11 km/h
Temperature: 43°F , 6°C
Wind Chill: 39°F , 4°C
Dew Point: 37°F , 3°C
Humidity: 81%
Barometer: 29.88 inHg , 1011.9 hPa
Clouds: Clear
Visibility: 10 miles , 16 km
2018/10/20 12:55 KJOT 201255Z AUTO 25006KT 10SM CLR 06/03 A2988 RMK AO2 T00620033
KLOT - Romeoville/Chi, Illinois, USA
Distance from station: NNW 34mi, 55km
Updated: Sat, 20-Oct-2018 7:55am CDT
Clear
Clear
 Wind from W
Wind: W 12 mph , 19 km/h
Temperature: 41°F , 5°C
Wind Chill: 34°F , 1°C
Dew Point: 37°F , 3°C
Humidity: 87%
Barometer: 29.88 inHg , 1011.9 hPa
Clouds: Clear
Visibility: 10 miles , 16 km
2018/10/20 12:55 KLOT 201255Z AUTO 26010KT 10SM CLR 05/03 A2988 RMK AO2 T00540027
 
KC09 - Morris-Washburn, Illinois, USA
Distance from station: WNW 36mi, 58km
Updated: Sat, 20-Oct-2018 7:55am CDT
Clear
Clear
 Wind from W
Wind: W 14 mph , 22 km/h
Temperature: 43°F , 6°C
Wind Chill: 36°F , 2°C
Dew Point: 37°F , 3°C
Humidity: 81%
Barometer: 29.90 inHg , 1012.5 hPa
Clouds: Clear
Visibility: 10 miles , 16 km
2018/10/20 12:55 KC09 201255Z AUTO 27012KT 10SM CLR 06/03 A2990 RMK AO2 T00580028
KRZL - Rensselaer, Indiana, USA
Distance from station: ESE 37mi, 59km
Updated: Sat, 20-Oct-2018 7:55am CDT
Clear
Clear
 Wind from WSW
Wind: WSW 8 mph , 13 km/h
Temperature: 43°F , 6°C
Wind Chill: 38°F , 3°C
Dew Point: 37°F , 3°C
Humidity: 81%
Barometer: 29.90 inHg , 1012.5 hPa
Clouds: Clear
Visibility: 10 miles , 16 km
2018/10/20 12:55 KRZL 201255Z AUTO 25007KT 10SM CLR 06/03 A2990 RMK AO2
 
KGYY - Gary Regional, Indiana, USA
Distance from station: NE 37mi, 60km
Updated: Sat, 20-Oct-2018 7:45am CDT
Clear
Clear
 Wind from WSW
Wind: WSW 10 mph , 17 km/h
Temperature: 46°F , 8°C
Wind Chill: 41°F , 5°C
Dew Point: 37°F , 3°C
Humidity: 71%
Barometer: 29.87 inHg , 1011.5 hPa
Clouds: Clear
Visibility: 10 miles , 16 km
2018/10/20 12:45 KGYY 201245Z 25009KT 10SM SKC 08/03 A2987
KMDW - Chicago, Illinois, USA
Distance from station: N 42mi, 68km
Updated: Sat, 20-Oct-2018 7:53am CDT
Clear
Clear
 Wind from W
Wind: W 14 mph , 22 km/h
Temperature: 46°F , 8°C
Wind Chill: 40°F , 4°C
Dew Point: 36°F , 2°C
Humidity: 66%
Barometer: 29.86 inHg , 1011.2 hPa
Clouds: Clear
Visibility: 10 miles , 16 km
2018/10/20 12:53 KMDW 201253Z 26012KT 10SM CLR 08/02 A2986 RMK AO2 SLP112 T00780017
 
KPNT - Pontiac, Illinois, USA
Distance from station: WSW 46mi, 74km
Updated: Sat, 20-Oct-2018 7:55am CDT
Clear
Clear
 Wind from W
Wind: W 10 mph , 17 km/h
Temperature: 43°F , 6°C
Wind Chill: 37°F , 3°C
Dew Point: 41°F , 5°C
Humidity: 93%
Barometer: 29.95 inHg , 1014.2 hPa
Clouds: Clear
Visibility: 10 miles , 16 km
2018/10/20 12:55 KPNT 201255Z AUTO 26009KT 10SM CLR 06/05 A2995 RMK AO2 T00620045
KVPZ - Valparaiso, Indiana, USA
Distance from station: ENE 47mi, 75km
Updated: Sat, 20-Oct-2018 7:56am CDT
Clear
Clear
 Wind from W
Wind: W 12 mph , 19 km/h
Temperature: 46°F , 8°C
Wind Chill: 40°F , 4°C
Dew Point: 36°F , 2°C
Humidity: 66%
Barometer: 29.87 inHg , 1011.5 hPa
Clouds: Clear
Visibility: 10 miles , 16 km
2018/10/20 12:56 KVPZ 201256Z AUTO 26010KT 10SM CLR 08/02 A2987 RMK AO2 SLP117 T00780022